Weather at Franke Field

Public forecast

Using degrees Fahrenheit for public forecast. Weather courtesy of forecast.io.

Closest aviation weather report (METAR) to Franke Field

Closest report is Little Rock Air Force Base, 6.3 nm (11.7 km) NW. Retrieved 2021/06/13 16:56 UTC (7 minutes ago):

KLRF 131656Z AUTO 04004KT 10SM BKN060 32/24 A2997 RMK AO2 SLP148 T03230235

Closest aviation forecast (TAF) to Franke Field

Closest forecast is Little Rock Air Force Base, 6.3 nm (11.7 km) NW. Retrieved 2021/06/13 15:42 UTC (1 hour ago):

TAF KLRF 131500Z 1315/1421 02012KT 9999 SCT035 QNH2988INS TX36/1320Z TN22/1411Z